• Join FlightAware (Why Join?)
  • Login
  • US Flag 
10:19AM EDT


 

Airport Tracker/Info


-or-


 

Live Flight TrackerFlight Track Log ✈ N311GM ✈ 22-Aug-2013 ✈ KHUM - KSTF

Flight Track Log - Related Links

Times and Time Zones

All times are in EDT time to prevent confusion due to time zone crossing. See the N311GM flight status page for this flight to view local times or setup timezone preferences in your user account.

Time Position Orientation Groundspeed Altitude Reporting Facility
EDT Latitude Longitude Course Direction KTS MPH feet Rate Location/Type
07:58PM 29.5858 -90.6308 53° Northeast 140 161 3,800  Level Houston Center
07:59PM 29.6250 -90.6189 15° North 142 163 6,200 2,340 Climbing Houston Center
08:00PM 29.6728 -90.5983 20° North 148 170 8,700 2,280 Climbing Houston Center
08:01PM 29.7142 -90.5786 22° Northeast 156 180 10,900 1,800 Climbing Houston Center
08:02PM 29.7567 -90.5592 22° Northeast 162 186 12,500 1,560 Climbing Houston Center
08:03PM 29.8047 -90.5347 24° Northeast 187 215 14,200 1,620 Climbing Houston Center
08:04PM 29.8539 -90.5144 20° North 186 214 15,900 1,500 Climbing Houston Center
08:05PM 29.9031 -90.4914 22° Northeast 190 219 17,300 1,260 Climbing Houston Center
08:06PM 29.9550 -90.4692 20° North 197 227 18,600 1,320 Climbing Houston Center
08:07PM 30.0164 -90.4406 22° Northeast 201 231 20,100 1,260 Climbing Houston Center
08:08PM 30.0711 -90.4167 21° North 208 239 21,300 1,080 Climbing Houston Center
08:09PM 30.1258 -90.3922 21° North 212 244 22,400 1,020 Climbing Houston Center
08:10PM 30.1828 -90.3675 21° North 216 249 23,400 900 Climbing Houston Center
08:11PM 30.2394 -90.3419 21° North 218 251 24,300 720 Climbing Houston Center
08:12PM 30.2969 -90.3161 21° North 220 253 25,000 300 Climbing Houston Center
08:13PM 30.3622 -90.2856 22° Northeast 247 284 25,000  Level Houston Center
08:14PM 30.4344 -90.2544 20° North 268 308 25,000 360 Level Houston Center
08:15PM 30.5208 -90.2153 21° North 275 316 25,800 960 Climbing Houston Center
08:16PM 30.5831 -90.1864 22° Northeast 246 283 27,000 900 Climbing Houston Center
08:17PM 30.6431 -90.1600 21° North 231 266 27,700 480 Climbing Houston Center
08:18PM 30.7053 -90.1314 22° Northeast 237 273 28,100 420 Climbing Houston Center
08:19PM 30.7706 -90.1025 21° North 248 285 28,600 420 Climbing Houston Center
08:20PM 30.8350 -90.0728 22° Northeast 250 288 29,000 180 Climbing Houston Center
08:21PM 30.9033 -90.0403 22° Northeast 261 300 29,000  Level Houston Center
08:22PM 30.9908 -90.0014 21° North 277 319 29,000  Level Houston Center
08:23PM 31.0644 -89.9672 22° Northeast 283 326 29,000  Level Houston Center
08:24PM 31.1403 -89.9331 21° North 289 333 29,000  Level Houston Center
08:25PM 31.2156 -89.8981 22° Northeast 292 336 29,000  Level Houston Center
08:26PM 31.2911 -89.8636 21° North 291 335 29,000  Level Houston Center
08:27PM 31.3667 -89.8278 22° Northeast 292 336 29,000  Level Houston Center
08:28PM 31.4408 -89.7889 24° Northeast 292 336 29,000  Level Houston Center
08:29PM 31.5322 -89.7431 23° Northeast 294 338 29,000  Level Houston Center
08:30PM 31.6067 -89.7044 24° Northeast 294 338 29,000  Level Houston Center
08:32PM 31.6817 -89.6661 24° Northeast 293 337 29,000  Level Houston Center
08:33PM 31.7567 -89.6267 24° Northeast 294 338 29,000  Level Houston Center
08:34PM 31.8414 -89.5828 24° Northeast 296 341 29,000  Level Houston Center
08:35PM 31.9161 -89.5431 24° Northeast 296 341 29,000  Level Houston Center
08:36PM 31.9864 -89.5075 23° Northeast 294 338 29,000  Level Memphis Center
08:37PM 32.0592 -89.4675 25° Northeast 294 338 29,000  Level Memphis Center
08:38PM 32.1361 -89.4275 24° Northeast 294 338 29,000  Level Memphis Center
08:39PM 32.2089 -89.3900 24° Northeast 294 338 29,000  Level Memphis Center
08:40PM 32.2836 -89.3497 24° Northeast 294 338 29,000  Level Memphis Center
08:41PM 32.3586 -89.3122 23° Northeast 294 338 29,000 -420 Level Memphis Center
08:42PM 32.4353 -89.2719 24° Northeast 294 338 28,200 -1,140 Descending Memphis Center
08:43PM 32.5206 -89.2264 24° Northeast 301 346 26,800 -1,920 Descending Memphis Center
08:44PM 32.5994 -89.1883 22° Northeast 307 353 24,400 -10,920 Descending Memphis Center
08:45PM 32.6869 -89.1528 19° North 318 366 5,000 -9,720 Descending Memphis Center
08:46PM 32.7658 -89.1244 17° North 313 360 5,000  Level Memphis Center
08:47PM 32.8303 -89.0767 32° Northeast 297 342 5,000  Level Memphis Center
08:48PM 32.8944 -89.0286 32° Northeast 284 327 5,000 840 Level Memphis Center
08:49PM 32.9631 -88.9956 22° Northeast 263 303 6,700  Climbing Memphis Center
08:50PM 33.0253 -88.9597 26° Northeast 252 290 5,100 -1,620 Descending Memphis Center